createdAt,value
2019-03-27T00:02:24.608Z,101884.66
2019-03-27T00:04:57.329Z,101891.19
2019-03-27T00:07:29.739Z,101887.69
2019-03-27T00:10:02.241Z,101884.64
2019-03-27T00:12:34.769Z,101880.30
2019-03-27T00:15:13.445Z,101878.55
2019-03-27T00:17:43.717Z,101879.88
2019-03-27T00:20:16.718Z,101886.41
2019-03-27T00:22:50.082Z,101888.55
2019-03-27T00:25:22.492Z,101879.40
2019-03-27T00:27:54.921Z,101874.14
2019-03-27T00:30:27.479Z,101877.20
2019-03-27T00:33:00.009Z,101880.67
2019-03-27T00:35:32.597Z,101873.74
2019-03-27T00:38:06.012Z,101877.20
2019-03-27T00:40:38.625Z,101880.66
2019-03-27T00:43:11.450Z,101872.80
2019-03-27T00:45:43.941Z,101872.83
2019-03-27T00:48:16.348Z,101878.49
2019-03-27T00:50:48.895Z,101875.88
2019-03-27T00:53:21.547Z,101875.43
2019-03-27T00:55:54.119Z,101879.78
2019-03-27T00:58:26.535Z,101874.16
2019-03-27T01:01:17.339Z,101871.08
2019-03-27T01:03:49.742Z,101865.42
2019-03-27T01:06:22.550Z,101866.30
2019-03-27T01:08:54.943Z,101863.22
2019-03-27T01:11:27.412Z,101864.97
2019-03-27T01:13:59.933Z,101866.27
2019-03-27T01:16:32.365Z,101868.92
2019-03-27T01:19:04.866Z,101861.04
2019-03-27T01:21:37.571Z,101865.86
2019-03-27T01:24:10.358Z,101856.30
2019-03-27T01:26:42.811Z,101865.44
2019-03-27T01:29:15.224Z,101865.03
2019-03-27T01:31:47.737Z,101858.06
2019-03-27T01:34:20.230Z,101853.72
2019-03-27T01:36:53.067Z,101860.69
2019-03-27T01:39:25.499Z,101862.39
2019-03-27T01:41:57.957Z,101859.78
2019-03-27T01:44:30.440Z,101851.52
2019-03-27T01:47:02.976Z,101854.13
2019-03-27T01:49:35.463Z,101844.98
2019-03-27T01:52:08.299Z,101837.55
2019-03-27T01:54:40.798Z,101842.78
2019-03-27T01:57:13.288Z,101839.33
2019-03-27T01:59:45.751Z,101838.89
2019-03-27T02:02:18.262Z,101845.45
2019-03-27T02:04:50.678Z,101847.62
2019-03-27T02:07:23.194Z,101843.27
2019-03-27T02:09:55.596Z,101851.48
2019-03-27T02:12:28.079Z,101850.63
2019-03-27T02:15:00.568Z,101853.21
2019-03-27T02:17:33.308Z,101848.86
2019-03-27T02:20:06.277Z,101848.80
2019-03-27T02:22:38.795Z,101852.72
2019-03-27T02:25:11.362Z,101845.75
2019-03-27T02:27:43.828Z,101848.77
2019-03-27T02:30:16.473Z,101850.98
2019-03-27T02:32:48.836Z,101851.01
2019-03-27T02:35:21.257Z,101853.21
2019-03-27T02:37:53.688Z,101850.59
2019-03-27T02:40:26.300Z,101854.13
2019-03-27T02:42:58.796Z,101852.41
2019-03-27T02:45:31.879Z,101849.39
2019-03-27T02:48:04.320Z,101852.89
2019-03-27T02:50:36.835Z,101850.28
2019-03-27T02:53:09.467Z,101851.13
2019-03-27T02:55:42.071Z,101844.59
2019-03-27T02:58:14.583Z,101851.98
2019-03-27T03:00:47.047Z,101849.83
2019-03-27T03:03:19.460Z,101856.78
2019-03-27T03:05:51.890Z,101861.14
2019-03-27T03:08:24.395Z,101858.12
2019-03-27T03:10:57.041Z,101859.44
2019-03-27T03:13:29.474Z,101858.16
2019-03-27T03:16:01.950Z,101860.76
2019-03-27T03:18:34.355Z,101856.87
2019-03-27T03:21:06.795Z,101871.22
2019-03-27T03:23:39.183Z,101866.89
2019-03-27T03:26:11.831Z,101860.39
2019-03-27T03:28:44.223Z,101870.82
2019-03-27T03:31:16.848Z,101854.28
2019-03-27T03:33:49.276Z,101858.66
2019-03-27T03:36:21.701Z,101858.66
2019-03-27T03:38:54.084Z,101864.74
2019-03-27T03:41:26.616Z,101860.41
2019-03-27T03:43:59.070Z,101855.64
2019-03-27T03:46:31.511Z,101858.27
2019-03-27T03:49:04.045Z,101856.94
2019-03-27T03:51:36.785Z,101865.66
2019-03-27T03:54:09.704Z,101862.59
2019-03-27T03:56:44.515Z,101867.39
2019-03-27T03:59:18.036Z,101862.16
2019-03-27T04:01:53.672Z,101855.20
2019-03-27T04:04:26.457Z,101856.94
2019-03-27T04:06:59.405Z,101860.87
2019-03-27T04:09:31.783Z,101859.12
2019-03-27T04:12:04.941Z,101866.10
2019-03-27T04:14:37.356Z,101874.78
2019-03-27T04:17:16.952Z,101876.09
2019-03-27T04:19:43.905Z,101879.13
2019-03-27T04:22:16.467Z,101874.78
2019-03-27T04:24:48.918Z,101877.37
2019-03-27T04:27:21.948Z,101872.16
2019-03-27T04:29:54.402Z,101878.25
2019-03-27T04:32:26.818Z,101879.99
2019-03-27T04:35:00.522Z,101873.47
2019-03-27T04:37:33.156Z,101880.87
2019-03-27T04:40:05.911Z,101876.95
2019-03-27T04:42:39.039Z,101876.97
2019-03-27T04:45:11.443Z,101872.18
2019-03-27T04:47:43.887Z,101876.53
2019-03-27T04:50:16.495Z,101876.97
2019-03-27T04:52:49.015Z,101883.05
2019-03-27T04:55:21.488Z,101880.44
2019-03-27T04:57:53.887Z,101880.45
2019-03-27T05:00:26.705Z,101877.41
2019-03-27T05:02:59.125Z,101886.53
2019-03-27T05:05:31.670Z,101887.84
2019-03-27T05:08:04.091Z,101886.95
2019-03-27T05:10:36.527Z,101885.66
2019-03-27T05:13:08.925Z,101894.78
2019-03-27T05:15:41.688Z,101890.00
2019-03-27T05:18:14.089Z,101883.04
2019-03-27T05:20:46.978Z,101888.28
2019-03-27T05:23:19.349Z,101890.89
2019-03-27T05:25:51.878Z,101894.80
2019-03-27T05:28:24.315Z,101899.57
2019-03-27T05:30:57.402Z,101902.18
2019-03-27T05:33:32.668Z,101900.44
2019-03-27T05:36:04.391Z,101902.17
2019-03-27T05:38:36.812Z,101902.63
2019-03-27T05:41:09.290Z,101903.05
2019-03-27T05:43:41.720Z,101906.12
2019-03-27T05:46:15.440Z,101906.53
2019-03-27T05:48:49.148Z,101909.58
2019-03-27T05:51:21.598Z,101911.74
2019-03-27T05:53:54.257Z,101909.56
2019-03-27T05:56:26.671Z,101917.84
2019-03-27T05:58:59.055Z,101919.59
2019-03-27T06:01:32.097Z,101914.78
2019-03-27T06:04:04.708Z,101930.03
2019-03-27T06:06:37.153Z,101920.89
2019-03-27T06:09:09.731Z,101923.06
2019-03-27T06:11:42.193Z,101927.41
2019-03-27T06:14:14.657Z,101928.28
2019-03-27T06:16:47.808Z,101927.41
2019-03-27T06:19:20.187Z,101922.63
2019-03-27T06:21:52.679Z,101929.59
2019-03-27T06:24:25.118Z,101933.05
2019-03-27T06:26:57.530Z,101931.30
2019-03-27T06:29:29.982Z,101938.27
2019-03-27T06:32:03.109Z,101941.77
2019-03-27T06:34:35.502Z,101941.31
2019-03-27T06:37:07.952Z,101939.96
2019-03-27T06:39:40.367Z,101931.27
2019-03-27T06:42:12.818Z,101939.05
2019-03-27T06:44:45.245Z,101942.11
2019-03-27T06:47:18.411Z,101940.34
2019-03-27T06:49:50.834Z,101933.36
2019-03-27T06:52:23.623Z,101934.19
2019-03-27T06:54:56.048Z,101937.25
2019-03-27T06:57:28.483Z,101938.08
2019-03-27T07:00:01.090Z,101939.83
2019-03-27T07:02:33.883Z,101945.03
2019-03-27T07:05:06.745Z,101949.36
2019-03-27T07:07:39.624Z,101952.79
2019-03-27T07:10:12.395Z,101958.43
2019-03-27T07:12:44.810Z,101961.42
2019-03-27T07:15:17.269Z,101953.98
2019-03-27T07:17:50.383Z,101961.80
2019-03-27T07:20:23.326Z,101960.49
2019-03-27T07:22:55.816Z,101965.69
2019-03-27T07:25:28.247Z,101964.81
2019-03-27T07:28:00.709Z,101959.99
2019-03-27T07:30:33.213Z,101963.44
2019-03-27T07:33:07.589Z,101961.66
2019-03-27T07:35:40.096Z,101967.73
2019-03-27T07:38:12.562Z,101969.01
2019-03-27T07:40:45.075Z,101964.20
2019-03-27T07:43:17.535Z,101966.34
2019-03-27T07:45:49.983Z,101963.69
2019-03-27T07:48:22.444Z,101966.70
2019-03-27T07:50:55.018Z,101957.47
2019-03-27T07:53:27.928Z,101964.83
2019-03-27T07:56:00.438Z,101962.61
2019-03-27T07:58:32.908Z,101966.05
2019-03-27T08:01:05.385Z,101967.75
2019-03-27T08:03:37.787Z,101974.24
2019-03-27T08:06:10.606Z,101975.06
2019-03-27T08:08:43.201Z,101974.61
2019-03-27T08:11:15.827Z,101976.75
2019-03-27T08:13:48.274Z,101981.45
2019-03-27T08:16:20.763Z,101986.64
2019-03-27T08:19:06.621Z,101983.52
2019-03-27T08:21:30.892Z,101986.52
2019-03-27T08:24:01.575Z,101985.53
2019-03-27T08:26:34.091Z,101978.44
2019-03-27T08:29:06.534Z,101974.88
2019-03-27T08:31:38.995Z,101977.86
2019-03-27T08:34:11.438Z,101983.91
2019-03-27T08:36:44.023Z,101983.84
2019-03-27T08:39:16.499Z,101989.41
2019-03-27T08:41:48.999Z,101985.02
2019-03-27T08:44:21.460Z,101987.14
2019-03-27T08:46:53.936Z,101986.63
2019-03-27T08:49:26.518Z,101985.27
2019-03-27T08:51:59.223Z,101985.61
2019-03-27T08:54:32.010Z,101990.72
2019-03-27T08:57:04.975Z,101986.69
2019-03-27T08:59:37.451Z,101982.63
2019-03-27T09:02:10.448Z,101985.61
2019-03-27T09:04:42.844Z,101979.88
2019-03-27T09:07:15.314Z,101992.39
2019-03-27T09:09:47.792Z,101991.01
2019-03-27T09:12:20.472Z,101989.17
2019-03-27T09:14:53.094Z,101993.89
2019-03-27T09:17:25.537Z,101993.00
2019-03-27T09:19:58.036Z,102002.59
2019-03-27T09:22:30.585Z,101989.00
2019-03-27T09:25:03.014Z,101993.30
2019-03-27T09:27:36.647Z,101993.30
2019-03-27T09:30:10.941Z,101998.11
2019-03-27T09:32:43.649Z,101996.24
2019-03-27T09:35:16.107Z,101992.59
2019-03-27T09:37:48.557Z,101997.72
2019-03-27T09:40:23.879Z,101997.53
2019-03-27T09:48:00.903Z,101995.56
2019-03-27T09:50:33.383Z,101994.16
2019-03-27T09:53:06.132Z,101994.05
2019-03-27T09:55:38.590Z,101994.80
2019-03-27T09:58:11.141Z,101989.39
2019-03-27T10:01:11.983Z,101991.13
2019-03-27T10:03:44.485Z,101988.50
2019-03-27T10:06:17.062Z,101974.91
2019-03-27T10:08:49.636Z,101974.38
2019-03-27T10:11:23.863Z,101970.66
2019-03-27T10:13:56.422Z,101971.23
2019-03-27T10:16:28.993Z,101970.05
2019-03-27T10:19:01.461Z,101971.55
2019-03-27T10:21:33.888Z,101969.64
2019-03-27T10:24:06.346Z,101967.27
2019-03-27T10:26:42.487Z,101975.44
2019-03-27T10:29:13.894Z,101964.77
2019-03-27T10:31:46.398Z,101971.71
2019-03-27T10:34:18.853Z,101975.72
2019-03-27T10:36:51.429Z,101972.13
2019-03-27T10:39:24.081Z,101968.99
2019-03-27T10:41:56.538Z,101970.67
2019-03-27T10:44:29.194Z,101966.24
2019-03-27T10:47:01.732Z,101968.81
2019-03-27T10:49:34.624Z,101974.05
2019-03-27T10:52:07.238Z,101969.06
2019-03-27T10:54:39.838Z,101975.02
2019-03-27T10:57:12.276Z,101976.34
2019-03-27T10:59:44.899Z,101979.30
2019-03-27T11:02:17.335Z,101971.75
2019-03-27T11:04:49.846Z,101975.91
2019-03-27T11:07:22.329Z,101980.88
2019-03-27T11:09:54.771Z,101989.72
2019-03-27T11:12:27.241Z,101975.66
2019-03-27T11:14:59.719Z,101969.25
2019-03-27T11:17:32.594Z,101976.09
2019-03-27T11:20:05.618Z,101974.12
2019-03-27T11:22:38.181Z,101961.45
2019-03-27T11:25:10.806Z,101966.86
2019-03-27T11:27:43.306Z,101957.72
2019-03-27T11:30:16.366Z,101960.62
2019-03-27T11:32:48.973Z,101952.45
2019-03-27T11:35:21.381Z,101953.13
2019-03-27T11:37:53.927Z,101955.44
2019-03-27T11:40:26.448Z,101956.52
2019-03-27T11:42:59.080Z,101948.44
2019-03-27T11:45:31.540Z,101957.12
2019-03-27T11:48:04.201Z,101944.03
2019-03-27T11:50:44.710Z,101946.22
2019-03-27T11:53:11.749Z,101955.31
2019-03-27T11:55:44.160Z,101959.98
2019-03-27T11:58:17.317Z,101953.61
2019-03-27T12:00:54.869Z,101958.89
2019-03-27T12:03:24.274Z,101946.93
2019-03-27T12:05:56.708Z,101949.91
2019-03-27T12:08:29.352Z,101950.74
2019-03-27T12:11:01.779Z,101953.84
2019-03-27T12:13:34.324Z,101956.73
2019-03-27T12:16:07.643Z,101954.77
2019-03-27T12:18:40.285Z,101951.85
2019-03-27T12:21:13.011Z,101953.24
2019-03-27T12:23:45.499Z,101947.17
2019-03-27T12:26:18.512Z,101947.31
2019-03-27T12:28:51.162Z,101949.71
2019-03-27T12:31:23.963Z,101948.19
2019-03-27T12:33:56.722Z,101943.50
2019-03-27T12:36:29.140Z,101947.52
2019-03-27T12:39:01.854Z,101950.58
2019-03-27T12:41:34.327Z,101951.41
2019-03-27T12:44:06.871Z,101950.09
2019-03-27T12:46:39.319Z,101944.53
2019-03-27T12:49:11.849Z,101948.53
2019-03-27T12:51:44.522Z,101947.66
2019-03-27T12:54:17.164Z,101939.29
2019-03-27T12:56:49.601Z,101942.34
2019-03-27T12:59:22.106Z,101936.55
2019-03-27T13:01:54.621Z,101935.16
2019-03-27T13:04:27.516Z,101927.59
2019-03-27T13:07:00.130Z,101932.38
2019-03-27T13:09:32.651Z,101934.02
2019-03-27T13:12:05.934Z,101932.55
2019-03-27T13:14:38.516Z,101932.03
2019-03-27T13:17:10.974Z,101933.55
2019-03-27T13:19:43.611Z,101937.82
2019-03-27T13:22:16.054Z,101932.39
2019-03-27T13:24:48.623Z,101923.88
2019-03-27T13:27:21.239Z,101920.52
2019-03-27T13:29:53.791Z,101917.17
2019-03-27T13:32:26.233Z,101920.90
2019-03-27T13:34:59.004Z,101916.78
2019-03-27T13:37:31.483Z,101910.03
2019-03-27T13:40:04.349Z,101912.10
2019-03-27T13:42:36.828Z,101914.74
2019-03-27T13:45:09.946Z,101913.84
2019-03-27T13:47:42.460Z,101915.65
2019-03-27T13:50:17.546Z,101908.86
2019-03-27T13:52:50.270Z,101914.52
2019-03-27T13:55:23.115Z,101905.95
2019-03-27T13:57:55.587Z,101911.73
2019-03-27T14:00:28.177Z,101901.63
2019-03-27T14:03:00.732Z,101898.23
2019-03-27T14:05:33.167Z,101903.96
2019-03-27T14:08:05.990Z,101897.70
2019-03-27T14:10:38.810Z,101892.68
2019-03-27T14:13:11.466Z,101895.50
2019-03-27T14:15:43.913Z,101892.95
2019-03-27T14:18:16.453Z,101892.64
2019-03-27T14:20:48.875Z,101889.18
2019-03-27T14:23:22.740Z,101883.64
2019-03-27T14:25:55.185Z,101886.98
2019-03-27T14:28:27.742Z,101883.27
2019-03-27T14:31:00.926Z,101886.57
2019-03-27T14:33:33.469Z,101879.46
2019-03-27T14:36:06.040Z,101878.09
2019-03-27T14:38:38.581Z,101885.66
2019-03-27T14:41:11.494Z,101881.42
2019-03-27T14:43:44.196Z,101879.35
2019-03-27T14:46:16.750Z,101888.36
2019-03-27T14:48:49.608Z,101889.55
2019-03-27T14:51:22.437Z,101884.92
2019-03-27T14:53:55.122Z,101888.18
2019-03-27T14:56:27.735Z,101894.95
2019-03-27T14:59:00.464Z,101895.59
2019-03-27T15:01:35.507Z,101890.55
2019-03-27T15:04:07.189Z,101888.19
2019-03-27T15:06:39.653Z,101884.91
2019-03-27T15:09:12.218Z,101890.30
2019-03-27T15:11:44.664Z,101892.69
2019-03-27T15:14:17.363Z,101895.97
2019-03-27T15:16:49.809Z,101895.21
2019-03-27T15:19:22.289Z,101894.84
2019-03-27T15:21:54.835Z,101891.33
2019-03-27T15:24:27.384Z,101892.20
2019-03-27T15:26:59.859Z,101892.64
2019-03-27T15:29:32.764Z,101889.06
2019-03-27T15:32:05.357Z,101891.70
2019-03-27T15:34:37.952Z,101897.39
2019-03-27T15:37:10.410Z,101901.36
2019-03-27T15:39:42.883Z,101894.76
2019-03-27T15:42:15.617Z,101892.88
2019-03-27T15:44:49.928Z,101890.16
2019-03-27T15:47:22.699Z,101881.25
2019-03-27T15:49:55.178Z,101877.97
2019-03-27T15:52:36.458Z,101881.66
2019-03-27T15:55:02.592Z,101877.05
2019-03-27T15:57:35.116Z,101881.64
2019-03-27T16:00:08.516Z,101878.38
2019-03-27T16:02:41.154Z,101883.09
2019-03-27T16:05:13.663Z,101874.64
2019-03-27T16:07:46.219Z,101884.30
2019-03-27T16:10:18.742Z,101882.19
2019-03-27T16:12:51.252Z,101884.83
2019-03-27T16:15:23.908Z,101887.85
2019-03-27T16:17:56.772Z,101888.72
2019-03-27T16:20:29.259Z,101890.11
2019-03-27T16:23:01.832Z,101887.06
2019-03-27T16:25:34.414Z,101888.09
2019-03-27T16:28:07.278Z,101889.60
2019-03-27T16:30:39.868Z,101893.31
2019-03-27T16:33:12.495Z,101896.60
2019-03-27T16:35:45.192Z,101892.38
2019-03-27T16:38:17.641Z,101890.34
2019-03-27T16:40:51.182Z,101897.66
2019-03-27T16:43:23.687Z,101901.05
2019-03-27T16:45:56.187Z,101902.22
2019-03-27T16:48:28.886Z,101909.08
2019-03-27T16:51:01.516Z,101910.58
2019-03-27T16:53:34.598Z,101912.48
2019-03-27T16:56:07.193Z,101909.98
2019-03-27T16:58:39.693Z,101915.37
2019-03-27T17:01:12.367Z,101917.77
2019-03-27T17:03:45.056Z,101916.10
2019-03-27T17:06:17.677Z,101918.88
2019-03-27T17:08:54.923Z,101916.79
2019-03-27T17:11:27.407Z,101920.85
2019-03-27T17:13:59.870Z,101919.18
2019-03-27T17:16:32.850Z,101921.86
2019-03-27T17:19:05.631Z,101926.75
2019-03-27T17:21:38.117Z,101923.76
2019-03-27T17:24:10.966Z,101932.19
2019-03-27T17:26:43.450Z,101933.63
2019-03-27T17:29:16.020Z,101933.70
2019-03-27T17:31:49.022Z,101934.22
2019-03-27T17:34:21.656Z,101933.45
2019-03-27T17:36:54.142Z,101932.70
2019-03-27T17:39:26.613Z,101936.81
2019-03-27T17:41:59.106Z,101940.06
2019-03-27T17:44:31.706Z,101940.70
2019-03-27T17:47:04.211Z,101943.39
2019-03-27T17:49:36.839Z,101943.96
2019-03-27T17:52:09.431Z,101944.08
2019-03-27T17:54:42.369Z,101948.16
2019-03-27T17:57:15.024Z,101947.92
2019-03-27T17:59:47.566Z,101951.56
2019-03-27T18:02:20.356Z,101953.38
2019-03-27T18:04:53.107Z,101959.64
2019-03-27T18:07:25.682Z,101957.98
2019-03-27T18:09:58.215Z,101958.88
2019-03-27T18:12:30.820Z,101959.75
2019-03-27T18:15:03.891Z,101962.75
2019-03-27T18:17:36.371Z,101965.36
2019-03-27T18:20:09.009Z,101962.27
2019-03-27T18:22:42.046Z,101964.02
2019-03-27T18:25:14.716Z,101965.44
2019-03-27T18:27:47.384Z,101966.88
2019-03-27T18:30:20.103Z,101980.12
2019-03-27T18:32:52.711Z,101982.05
2019-03-27T18:35:25.258Z,101990.93
2019-03-27T18:37:57.917Z,101990.56
2019-03-27T18:40:30.440Z,101990.22
2019-03-27T18:43:02.904Z,101993.30
2019-03-27T18:45:35.535Z,101998.53
2019-03-27T18:48:08.130Z,101997.59
2019-03-27T18:50:40.692Z,102007.64
2019-03-27T18:53:13.336Z,102008.05
2019-03-27T18:55:47.027Z,102007.54
2019-03-27T18:58:19.678Z,102011.05
2019-03-27T19:00:52.356Z,102009.72
2019-03-27T19:03:24.872Z,102010.59
2019-03-27T19:05:57.582Z,102015.88
2019-03-27T19:08:30.411Z,102020.34
2019-03-27T19:11:03.027Z,102022.15
2019-03-27T19:13:35.505Z,102020.05
2019-03-27T19:16:08.019Z,102028.47
2019-03-27T19:18:40.548Z,102029.39
2019-03-27T19:21:13.080Z,102031.59
2019-03-27T19:23:45.962Z,102032.05
2019-03-27T19:26:18.525Z,102024.62
2019-03-27T19:28:53.788Z,102029.48
2019-03-27T19:31:25.356Z,102032.67
2019-03-27T19:33:57.931Z,102024.89
2019-03-27T19:36:30.412Z,102027.20
2019-03-27T19:39:03.618Z,102029.56
2019-03-27T19:41:36.273Z,102026.18
2019-03-27T19:44:09.341Z,102029.38
2019-03-27T19:46:42.088Z,102028.58
2019-03-27T19:49:14.735Z,102031.80
2019-03-27T19:51:47.155Z,102037.13
2019-03-27T19:54:27.172Z,102041.61
2019-03-27T19:56:55.268Z,102047.37
2019-03-27T19:59:28.043Z,102039.13
2019-03-27T20:02:00.665Z,102044.86
2019-03-27T20:04:33.228Z,102046.61
2019-03-27T20:07:05.883Z,102047.05
2019-03-27T20:09:39.018Z,102051.00
2019-03-27T20:12:11.589Z,102051.50
2019-03-27T20:14:44.116Z,102058.95
2019-03-27T20:17:16.665Z,102055.45
2019-03-27T20:19:49.270Z,102053.33
2019-03-27T20:22:21.859Z,102057.73
2019-03-27T20:24:54.410Z,102061.70
2019-03-27T20:27:27.471Z,102058.72
2019-03-27T20:29:59.957Z,102063.55
2019-03-27T20:32:32.524Z,102067.97
2019-03-27T20:35:05.511Z,102069.31
2019-03-27T20:37:38.017Z,102068.06
2019-03-27T20:40:11.478Z,102068.59
2019-03-27T20:42:44.705Z,102070.82
2019-03-27T20:45:17.302Z,102069.64
2019-03-27T20:47:49.795Z,102068.84
2019-03-27T20:50:22.398Z,102066.73
2019-03-27T20:52:56.246Z,102065.52
2019-03-27T20:55:31.093Z,102064.73
2019-03-27T20:58:03.876Z,102065.69
2019-03-27T21:00:37.674Z,102064.91
2019-03-27T21:03:10.241Z,102071.09
2019-03-27T21:05:42.928Z,102068.98
2019-03-27T21:08:15.547Z,102068.18
2019-03-27T21:10:48.128Z,102072.19
2019-03-27T21:13:20.905Z,102077.49
2019-03-27T21:15:53.590Z,102075.81
2019-03-27T21:18:26.167Z,102075.45
2019-03-27T21:20:58.770Z,102079.89
2019-03-27T21:23:31.217Z,102084.33
2019-03-27T21:26:03.777Z,102083.96
2019-03-27T21:28:36.617Z,102078.78
2019-03-27T21:31:09.158Z,102084.52
2019-03-27T21:33:41.730Z,102079.77
2019-03-27T21:36:14.229Z,102078.96
2019-03-27T21:38:46.743Z,102081.20
2019-03-27T21:41:19.280Z,102082.58
2019-03-27T21:43:52.270Z,102087.44
2019-03-27T21:46:24.798Z,102086.57
2019-03-27T21:48:57.422Z,102085.74
2019-03-27T21:51:29.905Z,102087.94
2019-03-27T21:54:02.496Z,102088.42
2019-03-27T21:56:35.308Z,102085.36
2019-03-27T21:59:08.253Z,102080.62
2019-03-27T22:01:41.088Z,102082.36
2019-03-27T22:04:13.515Z,102081.48
2019-03-27T22:06:46.221Z,102078.48
2019-03-27T22:09:18.764Z,102080.67
2019-03-27T22:11:51.322Z,102077.22
2019-03-27T22:14:24.218Z,102080.33
2019-03-27T22:16:56.690Z,102083.39
2019-03-27T22:19:29.130Z,102089.11
2019-03-27T22:22:02.470Z,102087.41
2019-03-27T22:24:34.967Z,102090.92
2019-03-27T22:27:07.490Z,102100.56
2019-03-27T22:29:41.455Z,102096.24
2019-03-27T22:32:13.958Z,102099.34
2019-03-27T22:34:46.798Z,102098.47
2019-03-27T22:37:19.336Z,102097.20
2019-03-27T22:39:51.824Z,102104.24
2019-03-27T22:42:24.307Z,102102.20
2019-03-27T22:44:57.189Z,102103.18
2019-03-27T22:47:29.754Z,102101.98
2019-03-27T22:50:02.306Z,102099.86
2019-03-27T22:52:34.840Z,102103.42
2019-03-27T22:55:08.090Z,102103.00
2019-03-27T22:57:41.795Z,102106.52
2019-03-27T23:00:15.279Z,102113.51
2019-03-27T23:02:47.893Z,102113.11
2019-03-27T23:05:21.964Z,102110.92
2019-03-27T23:07:54.780Z,102116.61
2019-03-27T23:10:27.279Z,102115.73
2019-03-27T23:12:59.810Z,102110.08
2019-03-27T23:15:32.577Z,102113.55
2019-03-27T23:18:05.096Z,102113.98
2019-03-27T23:20:37.759Z,102114.86
2019-03-27T23:23:10.265Z,102109.66
2019-03-27T23:25:42.880Z,102117.95
2019-03-27T23:28:15.394Z,102119.28
2019-03-27T23:30:47.810Z,102112.70
2019-03-27T23:33:21.474Z,102119.68
2019-03-27T23:35:53.913Z,102122.31
2019-03-27T23:38:26.319Z,102133.19
2019-03-27T23:40:58.852Z,102134.48
2019-03-27T23:43:31.323Z,102127.52
2019-03-27T23:46:03.831Z,102120.98
2019-03-27T23:48:36.891Z,102122.72
2019-03-27T23:51:09.364Z,102124.92
2019-03-27T23:53:41.771Z,102122.28
2019-03-27T23:56:16.969Z,102125.33
2019-03-27T23:58:48.763Z,102122.30
